createdAt,value
2022-10-10T00:01:53.417Z,6.67
2022-10-10T00:04:57.239Z,4.83
2022-10-10T00:08:00.983Z,7.17
2022-10-10T00:11:05.528Z,5.10
2022-10-10T00:14:09.276Z,5.80
2022-10-10T00:17:14.306Z,4.53
2022-10-10T00:20:21.176Z,6.67
2022-10-10T00:23:25.436Z,8.70
2022-10-10T00:26:29.810Z,4.33
2022-10-10T00:29:33.522Z,3.77
2022-10-10T00:32:39.017Z,5.77
2022-10-10T00:35:43.154Z,5.23
2022-10-10T00:38:46.730Z,3.93
2022-10-10T00:41:50.405Z,5.37
2022-10-10T00:45:29.176Z,6.03
2022-10-10T00:48:38.090Z,3.30
2022-10-10T00:51:42.884Z,4.43
2022-10-10T00:54:46.506Z,3.17
2022-10-10T00:57:52.239Z,3.47
2022-10-10T01:00:56.783Z,5.57
2022-10-10T01:04:03.774Z,3.97
2022-10-10T01:07:12.560Z,5.03
2022-10-10T01:10:22.987Z,8.67
2022-10-10T01:13:36.104Z,5.77
2022-10-10T01:16:48.601Z,3.10
2022-10-10T01:20:32.296Z,4.57
2022-10-10T01:24:09.459Z,5.80
2022-10-10T01:27:33.400Z,3.67
2022-10-10T01:30:40.147Z,5.53
2022-10-10T01:33:55.882Z,9.00
2022-10-10T01:37:06.939Z,6.20
2022-10-10T01:40:25.061Z,5.60
2022-10-10T01:43:28.725Z,6.00
2022-10-10T01:46:35.176Z,5.27
2022-10-10T01:49:41.891Z,5.57
2022-10-10T01:53:01.847Z,7.93
2022-10-10T01:56:15.940Z,2.83
2022-10-10T01:59:38.030Z,3.43
2022-10-10T02:02:51.982Z,3.87
2022-10-10T02:06:03.656Z,3.27
2022-10-10T02:09:16.029Z,3.83
2022-10-10T02:12:23.475Z,6.77
2022-10-10T02:15:33.434Z,5.10
2022-10-10T02:18:39.529Z,4.23
2022-10-10T02:21:44.279Z,4.77
2022-10-10T02:24:47.858Z,3.60
2022-10-10T02:28:07.618Z,5.10
2022-10-10T02:31:18.615Z,4.60
2022-10-10T02:34:30.805Z,4.17
2022-10-10T02:37:35.558Z,5.80
2022-10-10T02:40:43.051Z,6.67
2022-10-10T02:43:47.607Z,4.90
2022-10-10T02:46:51.394Z,5.47
2022-10-10T02:49:56.395Z,6.80
2022-10-10T02:53:00.960Z,7.53
2022-10-10T02:56:04.795Z,7.37
2022-10-10T02:59:08.521Z,8.07
2022-10-10T03:02:13.925Z,7.47
2022-10-10T03:05:19.124Z,8.30
2022-10-10T03:08:22.818Z,3.60
2022-10-10T03:11:26.558Z,5.10
2022-10-10T03:14:30.166Z,5.97
2022-10-10T03:17:33.784Z,6.00
2022-10-10T03:20:38.819Z,6.47
2022-10-10T03:23:42.715Z,5.20
2022-10-10T03:26:46.339Z,5.83
2022-10-10T03:29:49.951Z,4.90
2022-10-10T03:32:53.969Z,6.80
2022-10-10T03:35:59.187Z,6.33
2022-10-10T03:39:02.954Z,5.30
2022-10-10T03:42:06.858Z,6.83
2022-10-10T03:45:11.310Z,6.97
2022-10-10T03:48:15.655Z,7.83
2022-10-10T03:51:20.874Z,7.63
2022-10-10T03:54:24.534Z,5.63
2022-10-10T03:57:28.160Z,5.53
2022-10-10T04:00:31.888Z,6.67
2022-10-10T04:03:35.439Z,4.93
2022-10-10T04:06:40.459Z,6.90
2022-10-10T04:09:44.023Z,5.33
2022-10-10T04:12:47.784Z,5.07
2022-10-10T04:15:52.555Z,5.93
2022-10-10T04:18:56.118Z,5.10
2022-10-10T04:22:01.066Z,3.33
2022-10-10T04:25:04.960Z,4.83
2022-10-10T04:28:08.731Z,5.43
2022-10-10T04:31:12.351Z,7.43
2022-10-10T04:34:16.241Z,8.23
2022-10-10T04:37:21.149Z,4.53
2022-10-10T04:40:26.796Z,5.70
2022-10-10T04:43:30.704Z,7.43
2022-10-10T04:46:36.269Z,5.10
2022-10-10T04:49:42.126Z,5.33
2022-10-10T04:52:47.362Z,8.43
2022-10-10T04:55:51.268Z,5.40
2022-10-10T04:58:55.148Z,5.90
2022-10-10T05:02:01.728Z,15.57
2022-10-10T05:05:06.942Z,10.73
2022-10-10T05:08:11.880Z,15.43
2022-10-10T05:11:15.520Z,13.10
2022-10-10T05:14:19.227Z,7.83
2022-10-10T05:17:22.911Z,13.60
2022-10-10T05:20:26.548Z,21.13
2022-10-10T05:23:32.139Z,26.43
2022-10-10T05:26:39.709Z,14.37
2022-10-10T05:29:46.119Z,12.03
2022-10-10T05:32:50.009Z,8.67
2022-10-10T05:35:53.870Z,9.37
2022-10-10T05:38:59.748Z,7.50
2022-10-10T05:42:03.467Z,18.53
2022-10-10T05:45:08.388Z,10.40
2022-10-10T05:48:12.043Z,6.33
2022-10-10T05:51:15.785Z,10.53
2022-10-10T05:54:21.487Z,10.60
2022-10-10T05:57:25.160Z,12.17
2022-10-10T06:00:28.984Z,9.47
2022-10-10T06:03:33.106Z,8.00
2022-10-10T06:06:36.695Z,10.00
2022-10-10T06:09:41.615Z,10.40
2022-10-10T06:12:45.318Z,8.73
2022-10-10T06:15:53.216Z,12.20
2022-10-10T06:18:57.815Z,12.63
2022-10-10T06:22:01.583Z,7.33
2022-10-10T06:25:15.205Z,21.00
2022-10-10T06:28:27.987Z,24.00
2022-10-10T06:31:31.777Z,16.70
2022-10-10T06:34:36.436Z,8.43
2022-10-10T06:37:40.049Z,6.23
2022-10-10T06:40:45.980Z,9.67
2022-10-10T06:43:51.922Z,8.73
2022-10-10T06:46:55.678Z,6.80
2022-10-10T06:50:00.494Z,10.07
2022-10-10T06:53:04.766Z,10.53
2022-10-10T06:56:17.455Z,24.77
2022-10-10T06:59:21.135Z,9.30
2022-10-10T07:02:25.097Z,11.13
2022-10-10T07:05:28.876Z,4.83
2022-10-10T07:08:34.700Z,8.13
2022-10-10T07:11:41.676Z,7.17
2022-10-10T07:14:45.258Z,8.70
2022-10-10T07:17:54.119Z,6.83
2022-10-10T07:20:59.222Z,5.17
2022-10-10T07:24:02.968Z,8.07
2022-10-10T07:27:09.017Z,5.67
2022-10-10T07:30:15.098Z,3.20
2022-10-10T07:33:18.735Z,4.03
2022-10-10T07:36:22.423Z,11.17
2022-10-10T07:39:27.090Z,5.63
2022-10-10T07:42:32.094Z,5.70
2022-10-10T07:45:37.696Z,6.17
2022-10-10T07:48:41.371Z,7.53
2022-10-10T07:51:44.992Z,6.57
2022-10-10T07:54:48.608Z,5.70
2022-10-10T07:57:53.788Z,5.33
2022-10-10T08:01:04.750Z,4.43
2022-10-10T08:04:08.371Z,6.10
2022-10-10T08:07:12.035Z,4.63
2022-10-10T08:10:15.767Z,4.27
2022-10-10T08:13:20.744Z,4.27
2022-10-10T08:16:24.577Z,6.40
2022-10-10T08:19:28.233Z,7.50
2022-10-10T08:22:34.027Z,7.13
2022-10-10T08:25:37.803Z,3.57
2022-10-10T08:28:44.107Z,5.57
2022-10-10T08:31:47.817Z,3.37
2022-10-10T08:34:51.595Z,6.70
2022-10-10T08:37:56.072Z,4.60
2022-10-10T08:41:07.602Z,5.97
2022-10-10T08:44:24.013Z,6.23
2022-10-10T08:47:40.371Z,6.80
2022-10-10T08:50:50.705Z,4.23
2022-10-10T08:54:00.200Z,4.50
2022-10-10T08:57:15.011Z,3.23
2022-10-10T09:00:25.164Z,4.13
2022-10-10T09:03:40.636Z,3.70
2022-10-10T09:07:07.736Z,5.43
2022-10-10T09:10:25.765Z,4.83
2022-10-10T09:13:37.535Z,4.23
2022-10-10T09:16:57.240Z,5.17
2022-10-10T09:20:19.217Z,3.40
2022-10-10T09:23:29.646Z,6.07
2022-10-10T09:26:41.625Z,6.00
2022-10-10T09:29:53.474Z,8.23
2022-10-10T09:33:09.404Z,3.77
2022-10-10T09:36:21.118Z,5.57
2022-10-10T09:39:37.135Z,5.77
2022-10-10T09:42:41.584Z,5.47
2022-10-10T09:45:53.067Z,5.87
2022-10-10T09:48:59.623Z,8.37
2022-10-10T09:52:24.093Z,4.10
2022-10-10T09:55:36.471Z,5.80
2022-10-10T09:58:44.413Z,5.87
2022-10-10T10:02:10.220Z,5.63
2022-10-10T10:05:28.937Z,3.33
2022-10-10T10:08:35.742Z,5.97
2022-10-10T10:11:40.763Z,4.80
2022-10-10T10:14:46.904Z,5.43
2022-10-10T10:18:12.690Z,4.60
2022-10-10T10:21:24.344Z,7.13
2022-10-10T10:24:36.434Z,5.77
2022-10-10T10:27:40.119Z,4.17
2022-10-10T10:30:46.296Z,4.67
2022-10-10T10:34:07.148Z,6.40
2022-10-10T10:37:23.308Z,4.27
2022-10-10T10:40:38.936Z,4.23
2022-10-10T10:44:28.459Z,4.27
2022-10-10T10:47:49.794Z,4.53
2022-10-10T10:50:58.597Z,4.20
2022-10-10T10:54:24.296Z,7.30
2022-10-10T10:58:04.686Z,7.17
2022-10-10T11:01:44.815Z,6.70
2022-10-10T11:05:30.261Z,8.60
2022-10-10T11:09:01.827Z,7.67
2022-10-10T11:12:23.435Z,7.13
2022-10-10T11:16:01.438Z,6.83
2022-10-10T11:19:18.463Z,7.60
2022-10-10T11:22:26.997Z,4.93
2022-10-10T11:25:37.689Z,12.00
2022-10-10T11:28:51.751Z,5.83
2022-10-10T11:32:01.186Z,5.67
2022-10-10T11:35:19.372Z,5.27
2022-10-10T11:38:32.888Z,4.30
2022-10-10T11:41:42.302Z,4.70
2022-10-10T11:44:54.435Z,5.07
2022-10-10T11:48:13.066Z,8.77
2022-10-10T11:51:32.405Z,5.53
2022-10-10T11:54:45.557Z,8.17
2022-10-10T11:57:56.854Z,4.70
2022-10-10T12:01:11.436Z,6.33
2022-10-10T12:04:15.039Z,7.73
2022-10-10T12:07:25.232Z,6.37
2022-10-10T12:10:35.558Z,5.97
2022-10-10T12:13:45.591Z,4.97
2022-10-10T12:16:53.699Z,4.90
2022-10-10T12:20:08.984Z,9.83
2022-10-10T12:23:28.818Z,5.33
2022-10-10T12:27:27.602Z,7.40
2022-10-10T12:30:31.672Z,5.07
2022-10-10T12:34:04.336Z,9.27
2022-10-10T12:37:26.168Z,4.23
2022-10-10T12:40:29.833Z,7.30
2022-10-10T12:43:50.931Z,5.13
2022-10-10T12:47:59.736Z,4.97
2022-10-10T12:51:01.614Z,5.03
2022-10-10T12:54:08.558Z,6.70
2022-10-10T12:57:22.873Z,4.17
2022-10-10T13:00:36.755Z,5.93
2022-10-10T13:03:47.662Z,4.67
2022-10-10T13:06:57.613Z,7.93
2022-10-10T13:10:20.154Z,6.23
2022-10-10T13:13:24.122Z,8.20
2022-10-10T13:16:34.016Z,5.07
2022-10-10T13:19:42.928Z,5.00
2022-10-10T13:22:48.180Z,6.33
2022-10-10T13:25:51.955Z,4.63
2022-10-10T13:28:58.051Z,5.40
2022-10-10T13:32:06.227Z,5.40
2022-10-10T13:35:18.385Z,4.30
2022-10-10T13:38:27.355Z,5.47
2022-10-10T13:41:31.293Z,6.30
2022-10-10T13:44:50.449Z,2.93
2022-10-10T13:47:58.467Z,4.67
2022-10-10T13:51:10.441Z,7.07
2022-10-10T13:54:42.867Z,3.47
2022-10-10T13:57:47.906Z,3.87
2022-10-10T14:00:58.085Z,3.30
2022-10-10T14:04:21.715Z,5.73
2022-10-10T14:07:27.918Z,3.60
2022-10-10T14:10:36.057Z,5.27
2022-10-10T14:13:40.331Z,6.40
2022-10-10T14:16:43.963Z,5.63
2022-10-10T14:19:49.571Z,5.27
2022-10-10T14:22:53.321Z,6.33
2022-10-10T14:25:59.636Z,8.80
2022-10-10T14:29:03.323Z,6.37
2022-10-10T14:32:07.597Z,5.47
2022-10-10T14:35:14.219Z,4.60
2022-10-10T14:38:18.601Z,5.50
2022-10-10T14:41:23.535Z,5.80
2022-10-10T14:44:27.231Z,4.90
2022-10-10T14:47:30.895Z,4.10
2022-10-10T14:50:37.483Z,4.23
2022-10-10T14:53:41.358Z,4.37
2022-10-10T14:57:08.597Z,6.27
2022-10-10T15:00:17.271Z,9.77
2022-10-10T15:03:21.211Z,5.77
2022-10-10T15:06:24.813Z,6.00
2022-10-10T15:09:41.554Z,4.30
2022-10-10T15:12:50.037Z,5.83
2022-10-10T15:15:53.683Z,6.67
2022-10-10T15:18:57.362Z,7.33
2022-10-10T15:22:00.930Z,7.70
2022-10-10T15:25:05.520Z,9.33
2022-10-10T15:28:11.359Z,9.23
2022-10-10T15:31:15.044Z,7.50
2022-10-10T15:34:19.208Z,13.37
2022-10-10T15:37:26.952Z,9.90
2022-10-10T15:40:30.599Z,8.03
2022-10-10T15:43:45.588Z,9.47
2022-10-10T15:46:49.246Z,8.70
2022-10-10T15:49:52.811Z,6.93
2022-10-10T15:52:56.510Z,8.97
2022-10-10T15:56:00.086Z,11.07
2022-10-10T15:59:05.512Z,8.53
2022-10-10T16:02:10.760Z,7.40
2022-10-10T16:05:14.383Z,10.10
2022-10-10T16:08:18.971Z,11.10
2022-10-10T16:11:25.249Z,13.03
2022-10-10T16:14:30.515Z,11.90
2022-10-10T16:17:34.185Z,11.70
2022-10-10T16:20:40.294Z,10.93
2022-10-10T16:23:43.859Z,12.87
2022-10-10T16:26:47.570Z,13.40
2022-10-10T16:29:52.581Z,16.60
2022-10-10T16:32:56.304Z,16.03
2022-10-10T16:35:59.971Z,12.77
2022-10-10T16:39:03.925Z,15.93
2022-10-10T16:42:07.734Z,15.83
2022-10-10T16:45:13.580Z,17.33
2022-10-10T16:48:17.145Z,20.33
2022-10-10T16:51:23.695Z,19.97
2022-10-10T16:54:27.408Z,20.87
2022-10-10T16:57:30.954Z,14.63
2022-10-10T17:00:36.215Z,8.20
2022-10-10T17:03:39.943Z,7.33
2022-10-10T17:06:43.502Z,7.63
2022-10-10T17:09:47.168Z,5.53
2022-10-10T17:12:50.933Z,6.33
2022-10-10T17:16:04.348Z,9.57
2022-10-10T17:19:18.315Z,4.83
2022-10-10T17:22:21.992Z,8.43
2022-10-10T17:25:25.575Z,8.93
2022-10-10T17:28:29.435Z,10.53
2022-10-10T17:31:34.489Z,5.40
2022-10-10T17:34:38.208Z,8.60
2022-10-10T17:37:41.852Z,8.93
2022-10-10T17:40:45.808Z,6.97
2022-10-10T17:43:50.010Z,5.77
2022-10-10T17:46:54.999Z,6.07
2022-10-10T17:49:58.583Z,6.47
2022-10-10T17:53:02.193Z,7.23
2022-10-10T17:56:12.083Z,4.03
2022-10-10T17:59:15.864Z,5.03
2022-10-10T18:02:21.156Z,4.60
2022-10-10T18:05:24.816Z,4.90
2022-10-10T18:08:28.506Z,4.40
2022-10-10T18:11:33.113Z,7.53
2022-10-10T18:14:36.675Z,14.23
2022-10-10T18:17:41.751Z,16.60
2022-10-10T18:20:46.225Z,14.83
2022-10-10T18:23:50.292Z,11.73
2022-10-10T18:26:54.101Z,8.63
2022-10-10T18:29:57.798Z,7.57
2022-10-10T18:33:02.769Z,10.47
2022-10-10T18:36:08.105Z,7.43
2022-10-10T18:39:29.455Z,8.30
2022-10-10T18:42:36.749Z,10.20
2022-10-10T18:45:40.635Z,10.43
2022-10-10T18:48:49.025Z,9.13
2022-10-10T18:51:55.550Z,6.87
2022-10-10T18:55:01.985Z,9.43
2022-10-10T18:58:07.298Z,6.37
2022-10-10T19:01:13.626Z,13.23
2022-10-10T19:04:20.791Z,13.63
2022-10-10T19:07:24.560Z,7.77
2022-10-10T19:10:28.261Z,11.20
2022-10-10T19:13:32.636Z,11.73
2022-10-10T19:16:37.127Z,12.23
2022-10-10T19:19:42.132Z,12.37
2022-10-10T19:22:45.790Z,15.23
2022-10-10T19:25:49.359Z,14.67
2022-10-10T19:28:53.316Z,12.43
2022-10-10T19:31:57.362Z,22.47
2022-10-10T19:35:02.379Z,12.63
2022-10-10T19:38:06.767Z,9.33
2022-10-10T19:41:14.310Z,11.97
2022-10-10T19:44:17.924Z,18.33
2022-10-10T19:47:21.713Z,14.50
2022-10-10T19:50:26.789Z,8.97
2022-10-10T19:53:31.136Z,16.10
2022-10-10T19:56:34.800Z,12.50
2022-10-10T19:59:38.803Z,10.87
2022-10-10T20:02:43.911Z,10.57
2022-10-10T20:05:49.168Z,11.27
2022-10-10T20:08:52.697Z,9.63
2022-10-10T20:11:56.502Z,12.63
2022-10-10T20:15:00.218Z,13.43
2022-10-10T20:18:03.944Z,15.10
2022-10-10T20:21:17.734Z,12.97
2022-10-10T20:24:21.614Z,9.77
2022-10-10T20:27:30.193Z,12.90
2022-10-10T20:30:36.247Z,11.07
2022-10-10T20:33:39.860Z,11.90
2022-10-10T20:36:50.205Z,10.87
2022-10-10T20:39:54.234Z,14.70
2022-10-10T20:42:59.547Z,12.87
2022-10-10T20:46:09.346Z,15.23
2022-10-10T20:49:17.440Z,13.03
2022-10-10T20:52:23.043Z,13.90
2022-10-10T20:55:27.293Z,12.20
2022-10-10T20:58:31.026Z,8.00
2022-10-10T21:01:35.610Z,13.77
2022-10-10T21:04:39.408Z,20.03
2022-10-10T21:07:45.926Z,11.57
2022-10-10T21:10:49.523Z,19.23
2022-10-10T21:13:56.736Z,11.70
2022-10-10T21:17:00.434Z,12.17
2022-10-10T21:20:04.185Z,14.47
2022-10-10T21:23:09.399Z,18.03
2022-10-10T21:26:16.723Z,11.60
2022-10-10T21:29:20.445Z,10.93
2022-10-10T21:32:24.032Z,15.70
2022-10-10T21:35:27.811Z,15.53
2022-10-10T21:38:32.789Z,12.47
2022-10-10T21:41:38.327Z,15.20
2022-10-10T21:44:42.779Z,13.63
2022-10-10T21:47:47.484Z,14.33
2022-10-10T21:50:51.054Z,13.13
2022-10-10T21:53:59.575Z,17.73
2022-10-10T21:57:03.079Z,11.63
2022-10-10T22:00:10.167Z,12.50
2022-10-10T22:03:13.935Z,12.97
2022-10-10T22:06:21.108Z,18.77
2022-10-10T22:09:26.046Z,16.60
2022-10-10T22:12:29.656Z,10.93
2022-10-10T22:15:33.232Z,12.90
2022-10-10T22:18:41.467Z,11.23
2022-10-10T22:21:44.972Z,10.67
2022-10-10T22:24:50.095Z,10.13
2022-10-10T22:27:57.142Z,12.20
2022-10-10T22:31:05.976Z,14.93
2022-10-10T22:34:09.584Z,12.17
2022-10-10T22:37:13.205Z,13.30
2022-10-10T22:40:18.539Z,11.80
2022-10-10T22:43:26.678Z,13.47
2022-10-10T22:46:31.126Z,11.17
2022-10-10T22:49:37.888Z,8.00
2022-10-10T22:52:42.095Z,13.03
2022-10-10T22:55:47.148Z,12.00
2022-10-10T22:58:52.581Z,12.57
2022-10-10T23:01:56.425Z,13.03
2022-10-10T23:05:00.811Z,10.73
2022-10-10T23:08:04.677Z,12.90
2022-10-10T23:11:09.766Z,8.90
2022-10-10T23:14:13.539Z,15.57
2022-10-10T23:17:17.162Z,11.77
2022-10-10T23:20:20.742Z,12.27
2022-10-10T23:23:24.543Z,16.83
2022-10-10T23:26:29.595Z,11.60
2022-10-10T23:29:34.061Z,12.30
2022-10-10T23:32:37.718Z,16.67
2022-10-10T23:35:41.401Z,8.40
2022-10-10T23:38:45.715Z,9.70
2022-10-10T23:41:50.713Z,21.03
2022-10-10T23:44:54.302Z,10.70
2022-10-10T23:47:57.967Z,13.30
2022-10-10T23:51:01.572Z,10.50
2022-10-10T23:54:06.930Z,15.13
2022-10-10T23:57:11.930Z,11.43
